sensor_id;sensor_type;location;lat;lon;timestamp;pressure;altitude;pressure_sealevel;temperature;humidity
50550;BME280;36505;52.512;13.460;2022-09-25T00:00:40;100780.16;;;12.83;72.21
50550;BME280;36505;52.512;13.460;2022-09-25T00:03:07;100789.28;;;12.88;72.18
50550;BME280;36505;52.512;13.460;2022-09-25T00:05:35;100780.16;;;12.83;71.91
50550;BME280;36505;52.512;13.460;2022-09-25T00:08:01;100778.72;;;12.80;71.90
50550;BME280;36505;52.512;13.460;2022-09-25T00:10:27;100780.16;;;12.83;71.93
50550;BME280;36505;52.512;13.460;2022-09-25T00:12:53;100782.06;;;12.82;71.98
50550;BME280;36505;52.512;13.460;2022-09-25T00:15:19;100782.09;;;12.87;72.19
50550;BME280;36505;52.512;13.460;2022-09-25T00:17:44;100782.59;;;12.84;72.34
50550;BME280;36505;52.512;13.460;2022-09-25T00:20:09;100779.31;;;12.82;71.92
50550;BME280;36505;52.512;13.460;2022-09-25T00:22:35;100772.41;;;12.80;71.87
50550;BME280;36505;52.512;13.460;2022-09-25T00:25:00;100774.38;;;12.84;71.81
50550;BME280;36505;52.512;13.460;2022-09-25T00:27:26;100772.44;;;12.85;71.71
50550;BME280;36505;52.512;13.460;2022-09-25T00:29:52;100753.13;;;12.75;71.56
50550;BME280;36505;52.512;13.460;2022-09-25T00:32:17;100750.38;;;12.75;71.51
50550;BME280;36505;52.512;13.460;2022-09-25T00:34:42;100763.38;;;12.84;71.56
50550;BME280;36505;52.512;13.460;2022-09-25T00:37:08;100760.06;;;12.82;71.42
50550;BME280;36505;52.512;13.460;2022-09-25T00:39:33;100739.00;;;12.66;71.60
50550;BME280;36505;52.512;13.460;2022-09-25T00:41:59;100748.34;;;12.65;71.44
50550;BME280;36505;52.512;13.460;2022-09-25T00:49:54;100761.56;;;12.68;71.19
50550;BME280;36505;52.512;13.460;2022-09-25T00:52:22;100750.25;;;12.64;70.85
50550;BME280;36505;52.512;13.460;2022-09-25T00:55:06;100758.81;;;12.68;70.83
50550;BME280;36505;52.512;13.460;2022-09-25T00:57:34;100759.38;;;12.70;70.48
50550;BME280;36505;52.512;13.460;2022-09-25T01:00:05;100760.47;;;12.69;70.31
50550;BME280;36505;52.512;13.460;2022-09-25T01:02:35;100745.28;;;12.61;70.15
50550;BME280;36505;52.512;13.460;2022-09-25T01:05:06;100754.72;;;12.71;69.51
50550;BME280;36505;52.512;13.460;2022-09-25T01:07:35;100754.47;;;12.72;69.19
50550;BME280;36505;52.512;13.460;2022-09-25T01:10:02;100745.38;;;12.72;68.71
50550;BME280;36505;52.512;13.460;2022-09-25T01:12:28;100744.00;;;12.69;68.36
50550;BME280;36505;52.512;13.460;2022-09-25T01:14:54;100748.38;;;12.70;67.57
50550;BME280;36505;52.512;13.460;2022-09-25T01:17:26;100735.88;;;12.57;67.25
50550;BME280;36505;52.512;13.460;2022-09-25T01:20:12;100735.38;;;12.60;67.35
50550;BME280;36505;52.512;13.460;2022-09-25T01:23:13;100745.28;;;12.61;67.01
50550;BME280;36505;52.512;13.460;2022-09-25T01:31:10;100732.75;;;12.49;66.03
50550;BME280;36505;52.512;13.460;2022-09-25T01:33:43;100741.31;;;12.52;66.44
50550;BME280;36505;52.512;13.460;2022-09-25T01:36:20;100724.72;;;12.42;65.72
50550;BME280;36505;52.512;13.460;2022-09-25T01:38:54;100733.28;;;12.46;65.85
50550;BME280;36505;52.512;13.460;2022-09-25T01:44:12;100743.69;;;12.44;66.06
50550;BME280;36505;52.512;13.460;2022-09-25T01:46:45;100737.91;;;12.40;66.41
50550;BME280;36505;52.512;13.460;2022-09-25T01:49:26;100742.56;;;12.40;66.80
50550;BME280;36505;52.512;13.460;2022-09-25T01:51:54;100740.91;;;12.39;66.73
50550;BME280;36505;52.512;13.460;2022-09-25T01:54:23;100744.47;;;12.39;66.80
50550;BME280;36505;52.512;13.460;2022-09-25T01:57:08;100737.31;;;12.38;66.63
50550;BME280;36505;52.512;13.460;2022-09-25T02:02:16;100745.34;;;12.45;66.85
50550;BME280;36505;52.512;13.460;2022-09-25T02:05:06;100718.53;;;12.30;66.82
50550;BME280;36505;52.512;13.460;2022-09-25T02:07:40;100730.41;;;12.36;67.10
50550;BME280;36505;52.512;13.460;2022-09-25T02:10:17;100729.84;;;12.34;67.26
50550;BME280;36505;52.512;13.460;2022-09-25T02:12:47;100737.75;;;12.30;67.48
50550;BME280;36505;52.512;13.460;2022-09-25T02:15:34;100714.28;;;12.17;67.64
50550;BME280;36505;52.512;13.460;2022-09-25T02:18:04;100730.59;;;12.29;67.72
50550;BME280;36505;52.512;13.460;2022-09-25T02:21:00;100723.78;;;12.32;67.72
50550;BME280;36505;52.512;13.460;2022-09-25T02:23:43;100726.53;;;12.32;67.63
50550;BME280;36505;52.512;13.460;2022-09-25T02:26:16;100729.47;;;12.25;67.48
50550;BME280;36505;52.512;13.460;2022-09-25T02:28:46;100730.25;;;12.20;67.70
50550;BME280;36505;52.512;13.460;2022-09-25T02:31:13;100726.03;;;12.13;67.81
50550;BME280;36505;52.512;13.460;2022-09-25T02:33:40;100730.44;;;12.14;67.79
50550;BME280;36505;52.512;13.460;2022-09-25T02:36:06;100728.19;;;12.11;67.92
50550;BME280;36505;52.512;13.460;2022-09-25T02:38:32;100698.31;;;11.93;68.23
50550;BME280;36505;52.512;13.460;2022-09-25T02:44:01;100730.69;;;12.12;68.34
50550;BME280;36505;52.512;13.460;2022-09-25T02:52:14;100725.13;;;12.07;68.89
50550;BME280;36505;52.512;13.460;2022-09-25T02:54:46;100720.16;;;12.04;68.97
50550;BME280;36505;52.512;13.460;2022-09-25T02:57:20;100722.88;;;12.04;69.08
50550;BME280;36505;52.512;13.460;2022-09-25T02:59:54;100721.81;;;12.05;69.10
50550;BME280;36505;52.512;13.460;2022-09-25T03:02:22;100713.25;;;12.02;68.86
50550;BME280;36505;52.512;13.460;2022-09-25T03:04:49;100717.16;;;12.06;68.88
50550;BME280;36505;52.512;13.460;2022-09-25T03:07:16;100706.41;;;12.04;69.19
50550;BME280;36505;52.512;13.460;2022-09-25T03:09:44;100719.72;;;12.12;69.03
50550;BME280;36505;52.512;13.460;2022-09-25T03:12:12;100724.13;;;12.13;69.08
50550;BME280;36505;52.512;13.460;2022-09-25T03:14:38;100716.97;;;12.12;68.83
50550;BME280;36505;52.512;13.460;2022-09-25T03:17:05;100711.41;;;12.07;69.01
50550;BME280;36505;52.512;13.460;2022-09-25T03:19:31;100699.22;;;11.98;69.05
50550;BME280;36505;52.512;13.460;2022-09-25T03:21:59;100710.84;;;12.05;69.33
50550;BME280;36505;52.512;13.460;2022-09-25T03:24:24;100712.75;;;12.05;69.35
50550;BME280;36505;52.512;13.460;2022-09-25T03:26:50;100696.13;;;11.95;69.39
50550;BME280;36505;52.512;13.460;2022-09-25T03:29:15;100713.06;;;12.08;69.44
50550;BME280;36505;52.512;13.460;2022-09-25T03:31:41;100709.47;;;12.08;69.92
50550;BME280;36505;52.512;13.460;2022-09-25T03:34:08;100709.75;;;12.06;69.67
50550;BME280;36505;52.512;13.460;2022-09-25T03:36:33;100701.75;;;12.05;69.81
50550;BME280;36505;52.512;13.460;2022-09-25T03:38:59;100699.28;;;12.03;70.25
50550;BME280;36505;52.512;13.460;2022-09-25T03:41:28;100693.97;;;11.97;69.83
50550;BME280;36505;52.512;13.460;2022-09-25T03:43:54;100697.75;;;11.91;70.00
50550;BME280;36505;52.512;13.460;2022-09-25T03:46:23;100712.59;;;11.95;70.36
50550;BME280;36505;52.512;13.460;2022-09-25T03:48:49;100714.50;;;11.94;70.42
50550;BME280;36505;52.512;13.460;2022-09-25T03:51:14;100712.28;;;11.91;70.61
50550;BME280;36505;52.512;13.460;2022-09-25T03:53:40;100708.13;;;11.88;71.00
50550;BME280;36505;52.512;13.460;2022-09-25T03:56:11;100705.66;;;11.87;71.44
50550;BME280;36505;52.512;13.460;2022-09-25T03:58:37;100710.56;;;11.85;71.68
50550;BME280;36505;52.512;13.460;2022-09-25T04:01:02;100711.66;;;11.84;71.49
50550;BME280;36505;52.512;13.460;2022-09-25T04:03:29;100707.81;;;11.85;71.76
50550;BME280;36505;52.512;13.460;2022-09-25T04:05:56;100705.38;;;11.88;71.50
50550;BME280;36505;52.512;13.460;2022-09-25T04:08:23;100687.72;;;11.79;71.66
50550;BME280;36505;52.512;13.460;2022-09-25T04:10:51;100703.41;;;11.84;71.89
50550;BME280;36505;52.512;13.460;2022-09-25T04:13:16;100704.81;;;11.86;71.99
50550;BME280;36505;52.512;13.460;2022-09-25T04:15:43;100704.44;;;11.78;72.09
50550;BME280;36505;52.512;13.460;2022-09-25T04:18:09;100708.41;;;11.70;72.75
50550;BME280;36505;52.512;13.460;2022-09-25T04:20:34;100706.97;;;11.68;72.88
50550;BME280;36505;52.512;13.460;2022-09-25T04:23:02;100703.75;;;11.71;72.63
50550;BME280;36505;52.512;13.460;2022-09-25T04:25:28;100698.59;;;11.74;72.61
50550;BME280;36505;52.512;13.460;2022-09-25T04:27:54;100701.59;;;11.73;72.55
50550;BME280;36505;52.512;13.460;2022-09-25T04:30:27;100696.00;;;11.68;72.53
50550;BME280;36505;52.512;13.460;2022-09-25T04:32:53;100698.84;;;11.73;72.77
50550;BME280;36505;52.512;13.460;2022-09-25T04:35:37;100703.16;;;11.69;72.94
50550;BME280;36505;52.512;13.460;2022-09-25T04:38:03;100696.19;;;11.61;73.00
50550;BME280;36505;52.512;13.460;2022-09-25T04:40:30;100709.41;;;11.64;73.15
50550;BME280;36505;52.512;13.460;2022-09-25T04:42:58;100687.06;;;11.56;73.29
50550;BME280;36505;52.512;13.460;2022-09-25T04:45:23;100704.41;;;11.61;73.46
50550;BME280;36505;52.512;13.460;2022-09-25T04:47:53;100694.03;;;11.63;73.43
50550;BME280;36505;52.512;13.460;2022-09-25T04:50:25;100692.72;;;11.66;73.28
50550;BME280;36505;52.512;13.460;2022-09-25T04:52:51;100697.13;;;11.67;73.42
50550;BME280;36505;52.512;13.460;2022-09-25T04:55:17;100700.84;;;11.61;73.67
50550;BME280;36505;52.512;13.460;2022-09-25T04:57:43;100702.75;;;11.60;73.80
50550;BME280;36505;52.512;13.460;2022-09-25T05:00:09;100684.50;;;11.49;73.40
50550;BME280;36505;52.512;13.460;2022-09-25T05:02:35;100695.63;;;11.59;73.36
50550;BME280;36505;52.512;13.460;2022-09-25T05:05:01;100672.47;;;11.50;73.50
50550;BME280;36505;52.512;13.460;2022-09-25T05:07:26;100697.84;;;11.62;73.62
50550;BME280;36505;52.512;13.460;2022-09-25T05:09:51;100684.50;;;11.49;73.80
50550;BME280;36505;52.512;13.460;2022-09-25T05:12:17;100701.53;;;11.51;74.17
50550;BME280;36505;52.512;13.460;2022-09-25T05:14:42;100699.13;;;11.55;73.86
50550;BME280;36505;52.512;13.460;2022-09-25T05:17:08;100686.59;;;11.42;73.54
50550;BME280;36505;52.512;13.460;2022-09-25T05:19:35;100689.75;;;11.51;73.29
50550;BME280;36505;52.512;13.460;2022-09-25T05:22:01;100687.75;;;11.46;73.35
50550;BME280;36505;52.512;13.460;2022-09-25T05:24:27;100686.59;;;11.42;73.19
50550;BME280;36505;52.512;13.460;2022-09-25T05:26:52;100700.06;;;11.43;73.25
50550;BME280;36505;52.512;13.460;2022-09-25T05:29:17;100695.88;;;11.41;73.63
50550;BME280;36505;52.512;13.460;2022-09-25T05:31:43;100698.47;;;11.47;73.72
50550;BME280;36505;52.512;13.460;2022-09-25T05:34:13;100707.03;;;11.51;73.31
50550;BME280;36505;52.512;13.460;2022-09-25T05:36:38;100713.34;;;11.52;73.42
50550;BME280;36505;52.512;13.460;2022-09-25T05:39:03;100718.00;;;11.51;73.55
50550;BME280;36505;52.512;13.460;2022-09-25T05:41:29;100712.69;;;11.44;73.67
50550;BME280;36505;52.512;13.460;2022-09-25T05:43:55;100708.53;;;11.42;73.99
50550;BME280;36505;52.512;13.460;2022-09-25T05:46:21;100697.47;;;11.37;73.99
50550;BME280;36505;52.512;13.460;2022-09-25T05:51:14;100713.22;;;11.63;74.00
50550;BME280;36505;52.512;13.460;2022-09-25T05:53:39;100714.38;;;11.67;73.50
50550;BME280;36505;52.512;13.460;2022-09-25T05:56:05;100715.72;;;11.65;73.45
50550;BME280;36505;52.512;13.460;2022-09-25T05:58:32;100690.88;;;11.55;73.56
50550;BME280;36505;52.512;13.460;2022-09-25T06:01:02;100703.53;;;11.56;73.58
50550;BME280;36505;52.512;13.460;2022-09-25T06:03:29;100710.00;;;11.66;73.27
50550;BME280;36505;52.512;13.460;2022-09-25T06:05:56;100706.91;;;11.63;73.24
50550;BME280;36505;52.512;13.460;2022-09-25T06:08:21;100718.91;;;11.57;73.65
50550;BME280;36505;52.512;13.460;2022-09-25T06:10:51;100714.50;;;11.56;73.62
50550;BME280;36505;52.512;13.460;2022-09-25T06:13:17;100701.72;;;11.44;74.23
50550;BME280;36505;52.512;13.460;2022-09-25T06:15:43;100714.06;;;11.47;74.44
50550;BME280;36505;52.512;13.460;2022-09-25T06:18:08;100698.97;;;11.44;74.18
50550;BME280;36505;52.512;13.460;2022-09-25T06:20:34;100707.34;;;11.55;74.18
50550;BME280;36505;52.512;13.460;2022-09-25T06:23:00;100713.16;;;11.58;74.26
50550;BME280;36505;52.512;13.460;2022-09-25T06:25:30;100708.56;;;11.64;74.12
50550;BME280;36505;52.512;13.460;2022-09-25T06:27:58;100717.31;;;11.77;73.23
50550;BME280;36505;52.512;13.460;2022-09-25T06:30:25;100709.97;;;11.83;72.74
50550;BME280;36505;52.512;13.460;2022-09-25T06:33:18;100719.91;;;12.27;72.05
50550;BME280;36505;52.512;13.460;2022-09-25T06:35:47;100724.41;;;12.87;70.67
50550;BME280;36505;52.512;13.460;2022-09-25T06:38:14;100725.59;;;13.23;68.10
50550;BME280;36505;52.512;13.460;2022-09-25T06:40:41;100700.19;;;13.48;66.26
50550;BME280;36505;52.512;13.460;2022-09-25T06:43:09;100654.00;;;13.50;65.27
50550;BME280;36505;52.512;13.460;2022-09-25T06:45:35;100725.81;;;14.01;65.19
50550;BME280;36505;52.512;13.460;2022-09-25T06:48:09;100723.03;;;13.91;65.12
50550;BME280;36505;52.512;13.460;2022-09-25T06:50:44;100708.56;;;13.63;65.64
50550;BME280;36505;52.512;13.460;2022-09-25T06:53:11;100723.78;;;13.81;65.97
50550;BME280;36505;52.512;13.460;2022-09-25T06:55:37;100725.78;;;13.96;65.56
50550;BME280;36505;52.512;13.460;2022-09-25T06:58:04;100708.34;;;13.75;65.07
50550;BME280;36505;52.512;13.460;2022-09-25T07:00:31;100719.31;;;13.70;65.33
50550;BME280;36505;52.512;13.460;2022-09-25T07:02:57;100719.91;;;13.77;65.26
50550;BME280;36505;52.512;13.460;2022-09-25T07:05:43;100719.06;;;13.71;65.22
50550;BME280;36505;52.512;13.460;2022-09-25T07:08:15;100708.56;;;13.63;65.05
50550;BME280;36505;52.512;13.460;2022-09-25T07:10:50;100726.78;;;13.74;65.12
50550;BME280;36505;52.512;13.460;2022-09-25T07:13:18;100696.22;;;13.71;64.65
50550;BME280;36505;52.512;13.460;2022-09-25T07:15:55;100714.28;;;14.04;64.14
50550;BME280;36505;52.512;13.460;2022-09-25T07:18:22;100713.81;;;14.22;63.26
50550;BME280;36505;52.512;13.460;2022-09-25T07:20:48;100718.53;;;14.32;62.96
50550;BME280;36505;52.512;13.460;2022-09-25T07:23:16;100712.97;;;14.27;62.94
50550;BME280;36505;52.512;13.460;2022-09-25T07:25:42;100687.94;;;14.33;62.32
50550;BME280;36505;52.512;13.460;2022-09-25T07:28:08;100711.81;;;14.80;61.81
50550;BME280;36505;52.512;13.460;2022-09-25T07:30:34;100710.19;;;15.24;59.86
50550;BME280;36505;52.512;13.460;2022-09-25T07:32:59;100706.59;;;15.44;59.30
50550;BME280;36505;52.512;13.460;2022-09-25T07:35:25;100709.09;;;15.61;59.26
50550;BME280;36505;52.512;13.460;2022-09-25T07:37:51;100693.59;;;15.50;59.24
50550;BME280;36505;52.512;13.460;2022-09-25T07:40:16;100704.25;;;16.17;57.85
50550;BME280;36505;52.512;13.460;2022-09-25T07:42:42;100694.25;;;17.14;55.16
50550;BME280;36505;52.512;13.460;2022-09-25T07:45:08;100696.59;;;17.94;52.58
50550;BME280;36505;52.512;13.460;2022-09-25T07:47:33;100686.38;;;18.93;50.29
50550;BME280;36505;52.512;13.460;2022-09-25T07:49:58;100704.13;;;19.11;50.53
50550;BME280;36505;52.512;13.460;2022-09-25T07:52:24;100694.41;;;18.57;50.59
50550;BME280;36505;52.512;13.460;2022-09-25T07:54:49;100670.06;;;17.88;51.64
50550;BME280;36505;52.512;13.460;2022-09-25T07:57:15;100713.78;;;17.91;51.91
50550;BME280;36505;52.512;13.460;2022-09-25T07:59:40;100702.59;;;18.01;52.53
50550;BME280;36505;52.512;13.460;2022-09-25T08:02:06;100705.38;;;18.01;53.15
50550;BME280;36505;52.512;13.460;2022-09-25T08:04:31;100695.00;;;17.88;52.86
50550;BME280;36505;52.512;13.460;2022-09-25T08:06:57;100696.25;;;17.71;52.30
50550;BME280;36505;52.512;13.460;2022-09-25T08:09:23;100696.97;;;17.82;52.83
50550;BME280;36505;52.512;13.460;2022-09-25T08:11:48;100691.41;;;18.30;50.88
50550;BME280;36505;52.512;13.460;2022-09-25T08:14:14;100678.31;;;19.29;49.12
50550;BME280;36505;52.512;13.460;2022-09-25T08:16:40;100673.88;;;19.74;46.90
50550;BME280;36505;52.512;13.460;2022-09-25T08:19:05;100686.34;;;19.77;47.00
50550;BME280;36505;52.512;13.460;2022-09-25T08:21:30;100671.66;;;19.44;47.86
50550;BME280;36505;52.512;13.460;2022-09-25T08:23:56;100679.91;;;18.98;49.05
50550;BME280;36505;52.512;13.460;2022-09-25T08:26:22;100682.84;;;19.06;48.90
50550;BME280;36505;52.512;13.460;2022-09-25T08:28:48;100672.53;;;18.74;49.68
50550;BME280;36505;52.512;13.460;2022-09-25T08:31:13;100677.81;;;19.41;48.27
50550;BME280;36505;52.512;13.460;2022-09-25T08:33:44;100669.53;;;19.54;48.32
50550;BME280;36505;52.512;13.460;2022-09-25T08:36:09;100682.34;;;19.37;49.13
50550;BME280;36505;52.512;13.460;2022-09-25T08:38:34;100681.81;;;19.34;49.49
50550;BME280;36505;52.512;13.460;2022-09-25T08:41:14;100679.72;;;18.94;49.96
50550;BME280;36505;52.512;13.460;2022-09-25T08:43:56;100676.94;;;18.57;51.02
50550;BME280;36505;52.512;13.460;2022-09-25T08:46:45;100684.47;;;18.51;51.63
50550;BME280;36505;52.512;13.460;2022-09-25T08:49:36;100679.75;;;18.33;52.21
50550;BME280;36505;52.512;13.460;2022-09-25T08:52:06;100687.81;;;18.29;51.82
50550;BME280;36505;52.512;13.460;2022-09-25T08:54:34;100682.59;;;18.04;52.34
50550;BME280;36505;52.512;13.460;2022-09-25T08:59:50;100683.31;;;17.67;53.57
50550;BME280;36505;52.512;13.460;2022-09-25T09:02:19;100673.63;;;17.64;54.88
50550;BME280;36505;52.512;13.460;2022-09-25T09:04:48;100674.34;;;17.75;53.71
50550;BME280;36505;52.512;13.460;2022-09-25T09:07:34;100659.41;;;17.95;52.75
50550;BME280;36505;52.512;13.460;2022-09-25T09:12:48;100668.66;;;18.33;52.21
50550;BME280;36505;52.512;13.460;2022-09-25T09:18:25;100666.91;;;19.12;49.40
50550;BME280;36505;52.512;13.460;2022-09-25T09:27:17;100672.78;;;21.68;44.02
50550;BME280;36505;52.512;13.460;2022-09-25T09:30:14;100666.91;;;22.83;40.93
50550;BME280;36505;52.512;13.460;2022-09-25T09:32:53;100668.03;;;22.74;41.25
50550;BME280;36505;52.512;13.460;2022-09-25T09:35:33;100671.06;;;21.90;41.92
50550;BME280;36505;52.512;13.460;2022-09-25T09:52:11;100642.25;;;23.75;40.08
50550;BME280;36505;52.512;13.460;2022-09-25T09:54:58;100646.13;;;23.91;39.07
50550;BME280;36505;52.512;13.460;2022-09-25T09:57:32;100641.63;;;24.08;37.88
50550;BME280;36505;52.512;13.460;2022-09-25T10:00:06;100633.81;;;26.56;34.45
50550;BME280;36505;52.512;13.460;2022-09-25T10:02:47;100637.63;;;27.16;32.94
50550;BME280;36505;52.512;13.460;2022-09-25T10:05:42;100634.06;;;26.51;33.87
50550;BME280;36505;52.512;13.460;2022-09-25T10:08:09;100623.22;;;27.61;32.00
50550;BME280;36505;52.512;13.460;2022-09-25T10:10:37;100620.47;;;27.48;32.01
50550;BME280;36505;52.512;13.460;2022-09-25T10:13:05;100626.53;;;27.07;32.97
50550;BME280;36505;52.512;13.460;2022-09-25T10:15:39;100627.16;;;27.28;32.76
50550;BME280;36505;52.512;13.460;2022-09-25T10:18:06;100625.41;;;27.24;32.45
50550;BME280;36505;52.512;13.460;2022-09-25T10:20:41;100609.28;;;26.53;33.27
50550;BME280;36505;52.512;13.460;2022-09-25T10:23:36;100620.25;;;26.98;32.26
50550;BME280;36505;52.512;13.460;2022-09-25T10:28:46;100629.50;;;29.06;30.14
50550;BME280;36505;52.512;13.460;2022-09-25T10:31:11;100626.25;;;29.46;29.23
50550;BME280;36505;52.512;13.460;2022-09-25T10:33:41;100632.34;;;29.71;29.49
50550;BME280;36505;52.512;13.460;2022-09-25T10:36:07;100623.91;;;29.10;29.94
50550;BME280;36505;52.512;13.460;2022-09-25T10:38:36;100610.47;;;28.14;30.26
50550;BME280;36505;52.512;13.460;2022-09-25T10:41:12;100624.66;;;27.11;32.49
50550;BME280;36505;52.512;13.460;2022-09-25T10:46:25;100606.81;;;25.66;34.08
50550;BME280;36505;52.512;13.460;2022-09-25T10:49:22;100618.78;;;25.30;34.83
50550;BME280;36505;52.512;13.460;2022-09-25T10:52:15;100617.00;;;24.72;36.55
50550;BME280;36505;52.512;13.460;2022-09-25T10:54:42;100593.44;;;24.52;36.34
50550;BME280;36505;52.512;13.460;2022-09-25T10:57:34;100614.34;;;24.55;36.96
50550;BME280;36505;52.512;13.460;2022-09-25T11:00:25;100611.31;;;24.39;37.19
50550;BME280;36505;52.512;13.460;2022-09-25T11:02:54;100602.38;;;24.46;37.34
50550;BME280;36505;52.512;13.460;2022-09-25T11:05:28;100588.31;;;24.33;37.24
50550;BME280;36505;52.512;13.460;2022-09-25T11:07:57;100590.28;;;24.03;37.77
50550;BME280;36505;52.512;13.460;2022-09-25T11:10:43;100608.63;;;23.92;38.07
50550;BME280;36505;52.512;13.460;2022-09-25T11:13:22;100614.28;;;23.75;38.26
50550;BME280;36505;52.512;13.460;2022-09-25T11:15:55;100612.31;;;23.76;38.48
50550;BME280;36505;52.512;13.460;2022-09-25T11:18:39;100605.28;;;23.70;37.56
50550;BME280;36505;52.512;13.460;2022-09-25T11:21:27;100587.03;;;23.72;38.44
50550;BME280;36505;52.512;13.460;2022-09-25T11:24:05;100601.63;;;23.78;38.67
50550;BME280;36505;52.512;13.460;2022-09-25T11:26:37;100606.63;;;23.63;39.38
50550;BME280;36505;52.512;13.460;2022-09-25T11:29:13;100584.28;;;23.55;38.86
50550;BME280;36505;52.512;13.460;2022-09-25T11:32:14;100595.09;;;23.65;39.00
50550;BME280;36505;52.512;13.460;2022-09-25T11:37:37;100596.69;;;23.28;40.10
50550;BME280;36505;52.512;13.460;2022-09-25T11:40:21;100598.38;;;23.12;40.24
50550;BME280;36505;52.512;13.460;2022-09-25T11:43:11;100594.00;;;22.85;40.47
50550;BME280;36505;52.512;13.460;2022-09-25T11:46:00;100583.94;;;22.67;41.88
50550;BME280;36505;52.512;13.460;2022-09-25T11:48:35;100582.44;;;22.52;42.71
50550;BME280;36505;52.512;13.460;2022-09-25T11:51:24;100580.16;;;22.37;42.21
50550;BME280;36505;52.512;13.460;2022-09-25T11:54:27;100574.25;;;22.30;41.76
50550;BME280;36505;52.512;13.460;2022-09-25T12:03:05;100571.44;;;21.64;43.89
50550;BME280;36505;52.512;13.460;2022-09-25T12:06:04;100561.06;;;21.48;43.78
50550;BME280;36505;52.512;13.460;2022-09-25T12:14:03;100559.25;;;20.90;45.83
50550;BME280;36505;52.512;13.460;2022-09-25T12:16:39;100564.13;;;20.84;45.60
50550;BME280;36505;52.512;13.460;2022-09-25T12:24:34;100558.75;;;20.66;45.62
50550;BME280;36505;52.512;13.460;2022-09-25T12:29:38;100546.06;;;20.73;45.36
50550;BME280;36505;52.512;13.460;2022-09-25T12:35:02;100549.69;;;20.38;46.31
50550;BME280;36505;52.512;13.460;2022-09-25T12:37:45;100531.56;;;20.27;47.08
50550;BME280;36505;52.512;13.460;2022-09-25T12:43:03;100558.44;;;20.31;46.55
50550;BME280;36505;52.512;13.460;2022-09-25T12:45:44;100548.88;;;20.37;47.11
50550;BME280;36505;52.512;13.460;2022-09-25T12:48:57;100544.84;;;20.43;46.76
50550;BME280;36505;52.512;13.460;2022-09-25T12:50:59;100542.78;;;20.35;45.29
50550;BME280;36505;52.512;13.460;2022-09-25T12:53:30;100540.94;;;20.31;45.69
50550;BME280;36505;52.512;13.460;2022-09-25T12:56:19;100540.34;;;20.20;46.03
50550;BME280;36505;52.512;13.460;2022-09-25T13:04:11;100523.81;;;20.01;46.38
50550;BME280;36505;52.512;13.460;2022-09-25T13:12:13;100528.41;;;19.84;46.75
50550;BME280;36505;52.512;13.460;2022-09-25T13:14:50;100516.59;;;19.51;45.75
50550;BME280;36505;52.512;13.460;2022-09-25T13:17:17;100529.31;;;19.52;46.43
50550;BME280;36505;52.512;13.460;2022-09-25T13:19:42;100519.66;;;19.36;46.71
50550;BME280;36505;52.512;13.460;2022-09-25T13:22:21;100531.28;;;19.38;47.10
50550;BME280;36505;52.512;13.460;2022-09-25T13:27:22;100530.13;;;19.25;47.08
50550;BME280;36505;52.512;13.460;2022-09-25T13:30:00;100526.13;;;19.17;47.64
50550;BME280;36505;52.512;13.460;2022-09-25T13:32:30;100513.25;;;19.08;47.51
50550;BME280;36505;52.512;13.460;2022-09-25T13:35:02;100529.91;;;19.08;47.50
50550;BME280;36505;52.512;13.460;2022-09-25T13:37:33;100516.72;;;19.00;47.35
50550;BME280;36505;52.512;13.460;2022-09-25T13:40:01;100522.81;;;19.02;47.65
50550;BME280;36505;52.512;13.460;2022-09-25T13:42:50;100522.19;;;19.05;48.47
50550;BME280;36505;52.512;13.460;2022-09-25T13:50:24;100503.41;;;19.15;48.73
50550;BME280;36505;52.512;13.460;2022-09-25T13:58:29;100494.25;;;19.15;49.88
50550;BME280;36505;52.512;13.460;2022-09-25T14:00:57;100498.16;;;19.14;50.39
50550;BME280;36505;52.512;13.460;2022-09-25T14:06:00;100480.88;;;19.03;50.20
50550;BME280;36505;52.512;13.460;2022-09-25T14:08:28;100481.91;;;19.07;50.14
50550;BME280;36505;52.512;13.460;2022-09-25T14:10:57;100487.97;;;19.09;50.05
50550;BME280;36505;52.512;13.460;2022-09-25T14:13:26;100485.81;;;19.06;50.43
50550;BME280;36505;52.512;13.460;2022-09-25T14:15:56;100478.91;;;18.90;50.42
50550;BME280;36505;52.512;13.460;2022-09-25T14:18:40;100478.38;;;18.88;50.42
50550;BME280;36505;52.512;13.460;2022-09-25T14:21:10;100476.63;;;18.92;50.29
50550;BME280;36505;52.512;13.460;2022-09-25T14:23:53;100485.47;;;18.94;50.44
50550;BME280;36505;52.512;13.460;2022-09-25T14:26:24;100472.75;;;18.93;50.47
50550;BME280;36505;52.512;13.460;2022-09-25T14:28:52;100468.41;;;18.87;50.28
50550;BME280;36505;52.512;13.460;2022-09-25T14:34:22;100469.53;;;18.86;50.41
50550;BME280;36505;52.512;13.460;2022-09-25T14:45:18;100461.41;;;18.62;50.90
50550;BME280;36505;52.512;13.460;2022-09-25T14:47:47;100442.41;;;18.50;51.51
50550;BME280;36505;52.512;13.460;2022-09-25T14:50:28;100454.56;;;18.54;51.62
50550;BME280;36505;52.512;13.460;2022-09-25T14:52:58;100456.81;;;18.52;52.29
50550;BME280;36505;52.512;13.460;2022-09-25T14:55:28;100445.81;;;18.47;52.64
50550;BME280;36505;52.512;13.460;2022-09-25T14:57:57;100439.84;;;18.40;53.09
50550;BME280;36505;52.512;13.460;2022-09-25T15:00:23;100448.06;;;18.45;53.74
50550;BME280;36505;52.512;13.460;2022-09-25T15:02:51;100448.06;;;18.45;53.55
50550;BME280;36505;52.512;13.460;2022-09-25T15:05:30;100443.94;;;18.43;53.63
50550;BME280;36505;52.512;13.460;2022-09-25T15:07:58;100448.59;;;18.47;54.18